createdAt,value
2018-01-22T00:00:11.706Z,3.42
2018-01-22T00:01:11.670Z,3.48
2018-01-22T00:02:11.649Z,3.48
2018-01-22T00:03:11.630Z,3.46
2018-01-22T00:04:11.603Z,3.46
2018-01-22T00:05:11.589Z,3.45
2018-01-22T00:06:11.559Z,3.48
2018-01-22T00:07:11.535Z,3.54
2018-01-22T00:08:11.518Z,3.51
2018-01-22T00:09:11.490Z,3.46
2018-01-22T00:10:11.465Z,3.52
2018-01-22T00:11:11.451Z,3.51
2018-01-22T00:12:11.421Z,3.52
2018-01-22T00:13:11.403Z,3.52
2018-01-22T00:14:11.381Z,3.48
2018-01-22T00:15:11.351Z,3.52
2018-01-22T00:16:11.330Z,3.49
2018-01-22T00:17:11.301Z,3.48
2018-01-22T00:18:11.279Z,3.52
2018-01-22T00:19:11.258Z,3.49
2018-01-22T00:20:11.239Z,3.48
2018-01-22T00:21:11.212Z,3.49
2018-01-22T00:22:11.189Z,3.59
2018-01-22T00:23:11.169Z,3.54
2018-01-22T00:24:11.143Z,3.56
2018-01-22T00:25:11.119Z,3.45
2018-01-22T00:26:11.112Z,3.46
2018-01-22T00:27:11.080Z,3.37
2018-01-22T00:28:11.060Z,3.46
2018-01-22T00:29:11.027Z,3.41
2018-01-22T00:30:11.005Z,3.32
2018-01-22T00:31:10.989Z,3.51
2018-01-22T00:32:11.019Z,3.35
2018-01-22T00:33:10.940Z,3.33
2018-01-22T00:34:10.919Z,3.33
2018-01-22T00:35:10.891Z,3.32
2018-01-22T00:36:11.020Z,3.33
2018-01-22T00:37:10.845Z,3.30
2018-01-22T00:38:10.828Z,3.37
2018-01-22T00:39:10.799Z,3.33
2018-01-22T00:40:10.780Z,3.46
2018-01-22T00:41:10.759Z,3.48
2018-01-22T00:42:10.740Z,3.36
2018-01-22T00:43:10.707Z,3.45
2018-01-22T00:44:10.687Z,3.35
2018-01-22T00:45:10.660Z,3.32
2018-01-22T00:46:10.640Z,3.33
2018-01-22T00:47:10.621Z,3.45
2018-01-22T00:48:10.599Z,3.30
2018-01-22T00:49:10.569Z,3.45
2018-01-22T00:50:10.546Z,3.49
2018-01-22T00:51:10.519Z,3.45
2018-01-22T00:52:10.497Z,3.46
2018-01-22T00:53:10.473Z,3.48
2018-01-22T00:54:10.459Z,3.44
2018-01-22T00:55:10.429Z,3.46
2018-01-22T00:56:10.409Z,3.54
2018-01-22T00:57:10.380Z,3.36
2018-01-22T00:58:10.391Z,3.30
2018-01-22T00:59:10.343Z,3.51
2018-01-22T01:00:10.322Z,3.49
2018-01-22T01:01:10.297Z,3.48
2018-01-22T01:02:10.270Z,3.46
2018-01-22T01:03:10.246Z,3.35
2018-01-22T01:04:10.222Z,3.35
2018-01-22T01:05:10.196Z,3.33
2018-01-22T01:06:10.177Z,3.33
2018-01-22T01:07:10.156Z,3.32
2018-01-22T01:08:10.129Z,3.35
2018-01-22T01:09:10.109Z,3.27
2018-01-22T01:10:10.079Z,3.33
2018-01-22T01:11:10.054Z,3.36
2018-01-22T01:12:10.032Z,3.32
2018-01-22T01:13:10.008Z,3.27
2018-01-22T01:14:09.990Z,3.33
2018-01-22T01:15:09.965Z,3.33
2018-01-22T01:16:09.937Z,3.25
2018-01-22T01:17:09.916Z,3.26
2018-01-22T01:18:09.889Z,3.30
2018-01-22T01:19:09.869Z,3.30
2018-01-22T01:20:09.850Z,3.25
2018-01-22T01:21:09.829Z,3.25
2018-01-22T01:22:09.797Z,3.33
2018-01-22T01:23:09.777Z,3.44
2018-01-22T01:24:09.760Z,3.49
2018-01-22T01:25:09.727Z,3.30
2018-01-22T01:26:09.707Z,3.36
2018-01-22T01:27:09.680Z,3.33
2018-01-22T01:28:09.661Z,3.30
2018-01-22T01:29:09.641Z,3.30
2018-01-22T01:30:09.610Z,3.20
2018-01-22T01:31:09.590Z,3.35
2018-01-22T01:32:09.566Z,3.27
2018-01-22T01:33:09.542Z,3.25
2018-01-22T01:34:09.523Z,3.33
2018-01-22T01:35:09.493Z,3.36
2018-01-22T01:36:09.471Z,3.37
2018-01-22T01:37:09.448Z,3.30
2018-01-22T01:38:09.435Z,3.32
2018-01-22T01:39:09.398Z,3.37
2018-01-22T01:40:09.380Z,3.26
2018-01-22T01:41:09.353Z,3.27
2018-01-22T01:42:09.330Z,3.37
2018-01-22T01:43:09.309Z,3.26
2018-01-22T01:44:09.285Z,3.27
2018-01-22T01:45:09.259Z,3.20
2018-01-22T01:46:09.233Z,3.18
2018-01-22T01:47:09.218Z,3.29
2018-01-22T01:48:09.189Z,3.23
2018-01-22T01:49:09.170Z,3.17
2018-01-22T01:50:09.140Z,3.26
2018-01-22T01:51:09.120Z,3.25
2018-01-22T01:52:09.100Z,3.15
2018-01-22T01:53:09.070Z,3.18
2018-01-22T01:54:09.055Z,3.18
2018-01-22T01:55:09.077Z,3.26
2018-01-22T01:56:09.001Z,3.25
2018-01-22T01:57:08.982Z,3.32
2018-01-22T01:58:08.950Z,3.27
2018-01-22T01:59:08.930Z,3.35
2018-01-22T02:00:08.909Z,3.25
2018-01-22T02:01:08.896Z,3.23
2018-01-22T02:02:08.859Z,3.22
2018-01-22T02:03:08.832Z,3.26
2018-01-22T02:04:08.809Z,3.30
2018-01-22T02:05:08.839Z,3.30
2018-01-22T02:06:08.767Z,3.25
2018-01-22T02:07:08.775Z,3.20
2018-01-22T02:08:08.714Z,3.15
2018-01-22T02:09:08.728Z,3.20
2018-01-22T02:10:08.670Z,3.18
2018-01-22T02:11:08.743Z,3.23
2018-01-22T02:12:08.621Z,3.22
2018-01-22T02:13:08.646Z,3.25
2018-01-22T02:14:08.573Z,3.25
2018-01-22T02:15:08.599Z,3.20
2018-01-22T02:16:08.530Z,3.17
2018-01-22T02:17:08.510Z,3.20
2018-01-22T02:18:08.481Z,3.18
2018-01-22T02:19:08.506Z,3.17
2018-01-22T02:20:08.436Z,3.22
2018-01-22T02:21:08.414Z,3.22
2018-01-22T02:22:08.390Z,3.15
2018-01-22T02:23:08.371Z,3.22
2018-01-22T02:24:08.346Z,3.22
2018-01-22T02:25:08.326Z,3.25
2018-01-22T02:26:08.291Z,3.22
2018-01-22T02:27:08.269Z,3.18
2018-01-22T02:28:08.240Z,3.25
2018-01-22T02:29:08.220Z,3.22
2018-01-22T02:30:08.203Z,3.18
2018-01-22T02:31:08.172Z,3.20
2018-01-22T02:32:08.147Z,3.23
2018-01-22T02:33:08.125Z,3.26
2018-01-22T02:34:08.100Z,3.25
2018-01-22T02:35:08.077Z,3.26
2018-01-22T02:36:08.053Z,3.27
2018-01-22T02:37:08.039Z,3.25
2018-01-22T02:38:08.008Z,3.35
2018-01-22T02:39:07.982Z,3.23
2018-01-22T02:40:07.961Z,3.18
2018-01-22T02:41:07.944Z,3.27
2018-01-22T02:42:07.919Z,3.35
2018-01-22T02:43:07.889Z,3.20
2018-01-22T02:44:07.866Z,3.22
2018-01-22T02:45:07.844Z,3.17
2018-01-22T02:46:07.820Z,3.15
2018-01-22T02:47:07.796Z,3.09
2018-01-22T02:48:07.771Z,3.05
2018-01-22T02:49:07.753Z,3.17
2018-01-22T02:50:07.728Z,3.04
2018-01-22T02:51:07.704Z,3.09
2018-01-22T02:52:07.682Z,3.00
2018-01-22T02:53:07.660Z,3.11
2018-01-22T02:54:07.637Z,3.08
2018-01-22T02:55:07.607Z,3.09
2018-01-22T02:56:07.585Z,3.04
2018-01-22T02:57:07.568Z,3.04
2018-01-22T02:58:07.540Z,3.04
2018-01-22T02:59:07.519Z,3.00
2018-01-22T03:00:07.490Z,3.09
2018-01-22T03:01:07.469Z,2.99
2018-01-22T03:02:07.448Z,2.97
2018-01-22T03:03:07.419Z,2.97
2018-01-22T03:04:07.397Z,2.97
2018-01-22T03:05:07.370Z,3.02
2018-01-22T03:06:07.348Z,2.87
2018-01-22T03:07:07.332Z,3.02
2018-01-22T03:08:07.312Z,3.05
2018-01-22T03:09:07.280Z,3.08
2018-01-22T03:10:07.261Z,2.99
2018-01-22T03:11:07.230Z,3.00
2018-01-22T03:12:07.207Z,2.99
2018-01-22T03:13:07.190Z,2.99
2018-01-22T03:14:07.165Z,2.90
2018-01-22T03:15:07.137Z,2.94
2018-01-22T03:16:07.120Z,2.99
2018-01-22T03:17:07.095Z,3.02
2018-01-22T03:18:07.065Z,3.05
2018-01-22T03:19:07.051Z,3.00
2018-01-22T03:20:07.020Z,3.05
2018-01-22T03:21:06.994Z,2.97
2018-01-22T03:22:06.969Z,3.04
2018-01-22T03:23:06.947Z,3.11
2018-01-22T03:24:06.925Z,3.08
2018-01-22T03:25:06.899Z,3.04
2018-01-22T03:26:06.876Z,3.09
2018-01-22T03:27:06.850Z,3.00
2018-01-22T03:28:06.830Z,3.04
2018-01-22T03:29:06.809Z,3.04
2018-01-22T03:30:06.781Z,3.04
2018-01-22T03:31:06.761Z,3.04
2018-01-22T03:32:06.740Z,3.04
2018-01-22T03:33:06.710Z,3.11
2018-01-22T03:34:06.691Z,3.05
2018-01-22T03:35:06.677Z,3.14
2018-01-22T03:36:06.640Z,3.08
2018-01-22T03:37:06.619Z,3.05
2018-01-22T03:38:06.600Z,3.08
2018-01-22T03:39:06.571Z,3.11
2018-01-22T03:40:06.554Z,3.04
2018-01-22T03:41:06.523Z,2.99
2018-01-22T03:42:06.499Z,3.07
2018-01-22T03:43:06.476Z,3.00
2018-01-22T03:44:06.460Z,3.02
2018-01-22T03:45:06.432Z,3.02
2018-01-22T03:46:06.410Z,3.04
2018-01-22T03:47:06.380Z,3.04
2018-01-22T03:48:06.359Z,3.08
2018-01-22T03:49:06.339Z,3.09
2018-01-22T03:50:06.310Z,3.07
2018-01-22T03:51:06.290Z,3.11
2018-01-22T03:52:06.271Z,3.14
2018-01-22T03:53:06.247Z,3.04
2018-01-22T03:54:06.219Z,3.08
2018-01-22T03:55:06.194Z,3.11
2018-01-22T03:56:06.169Z,3.02
2018-01-22T03:57:06.199Z,3.15
2018-01-22T03:58:06.126Z,3.00
2018-01-22T03:59:06.100Z,3.09
2018-01-22T04:00:06.077Z,3.14
2018-01-22T04:01:06.051Z,3.12
2018-01-22T04:02:06.030Z,3.17
2018-01-22T04:03:06.006Z,3.04
2018-01-22T04:04:05.990Z,3.12
2018-01-22T04:05:05.961Z,3.18
2018-01-22T04:06:05.933Z,3.12
2018-01-22T04:07:05.910Z,3.15
2018-01-22T04:08:05.950Z,3.18
2018-01-22T04:09:05.869Z,3.09
2018-01-22T04:10:05.881Z,3.22
2018-01-22T04:11:05.820Z,3.17
2018-01-22T04:12:06.100Z,3.14
2018-01-22T04:13:05.770Z,3.14
2018-01-22T04:14:05.750Z,3.12
2018-01-22T04:15:05.722Z,3.12
2018-01-22T04:16:05.782Z,3.12
2018-01-22T04:17:05.676Z,3.15
2018-01-22T04:18:05.661Z,3.17
2018-01-22T04:19:05.629Z,3.14
2018-01-22T04:20:05.609Z,3.11
2018-01-22T04:21:05.581Z,3.11
2018-01-22T04:22:05.671Z,3.09
2018-01-22T04:23:05.539Z,3.17
2018-01-22T04:24:05.520Z,3.14
2018-01-22T04:25:05.488Z,3.22
2018-01-22T04:26:05.465Z,3.09
2018-01-22T04:27:05.450Z,3.05
2018-01-22T04:28:05.424Z,3.04
2018-01-22T04:29:05.397Z,3.07
2018-01-22T04:30:05.381Z,3.04
2018-01-22T04:31:05.350Z,2.99
2018-01-22T04:32:05.325Z,2.93
2018-01-22T04:33:05.303Z,3.07
2018-01-22T04:34:05.290Z,2.84
2018-01-22T04:35:05.260Z,2.96
2018-01-22T04:36:05.230Z,3.09
2018-01-22T04:37:05.210Z,2.99
2018-01-22T04:38:05.191Z,3.00
2018-01-22T04:39:05.159Z,2.99
2018-01-22T04:40:05.139Z,3.00
2018-01-22T04:41:05.114Z,3.04
2018-01-22T04:42:05.090Z,3.02
2018-01-22T04:43:05.066Z,3.05
2018-01-22T04:44:05.059Z,3.00
2018-01-22T04:45:05.020Z,2.97
2018-01-22T04:46:04.996Z,3.02
2018-01-22T04:47:04.977Z,2.94
2018-01-22T04:48:04.949Z,3.02
2018-01-22T04:49:04.942Z,2.97
2018-01-22T04:50:04.909Z,2.96
2018-01-22T04:51:04.883Z,3.05
2018-01-22T04:52:04.861Z,2.99
2018-01-22T04:53:04.839Z,2.89
2018-01-22T04:54:04.811Z,2.99
2018-01-22T04:55:04.801Z,2.99
2018-01-22T04:56:04.765Z,2.99
2018-01-22T04:57:04.739Z,2.87
2018-01-22T04:58:04.724Z,2.99
2018-01-22T04:59:04.691Z,2.96
2018-01-22T05:00:04.673Z,2.97
2018-01-22T05:01:04.649Z,2.97
2018-01-22T05:02:04.621Z,2.96
2018-01-22T05:03:04.602Z,2.99
2018-01-22T05:04:04.580Z,3.02
2018-01-22T05:05:04.560Z,3.04
2018-01-22T05:06:04.529Z,3.05
2018-01-22T05:07:04.507Z,3.02
2018-01-22T05:08:04.480Z,3.04
2018-01-22T05:09:04.460Z,3.02
2018-01-22T05:10:04.435Z,3.08
2018-01-22T05:11:04.410Z,3.05
2018-01-22T05:12:04.386Z,3.07
2018-01-22T05:13:04.364Z,3.09
2018-01-22T05:14:04.339Z,3.04
2018-01-22T05:15:04.318Z,3.11
2018-01-22T05:16:04.293Z,3.08
2018-01-22T05:17:04.274Z,3.04
2018-01-22T05:18:04.249Z,2.99
2018-01-22T05:19:04.224Z,3.08
2018-01-22T05:20:04.203Z,3.05
2018-01-22T05:21:04.178Z,3.00
2018-01-22T05:22:04.154Z,3.18
2018-01-22T05:23:04.129Z,3.17
2018-01-22T05:24:04.105Z,3.17
2018-01-22T05:25:04.137Z,3.14
2018-01-22T05:26:04.057Z,3.14
2018-01-22T05:27:04.039Z,3.14
2018-01-22T05:28:04.015Z,3.18
2018-01-22T05:29:03.989Z,3.25
2018-01-22T05:30:03.969Z,3.17
2018-01-22T05:31:03.946Z,3.20
2018-01-22T05:32:03.919Z,3.18
2018-01-22T05:33:03.899Z,3.18
2018-01-22T05:34:03.872Z,3.18
2018-01-22T05:35:03.852Z,3.27
2018-01-22T05:36:03.824Z,3.30
2018-01-22T05:37:03.802Z,3.36
2018-01-22T05:38:03.779Z,3.30
2018-01-22T05:39:03.754Z,3.35
2018-01-22T05:40:03.733Z,3.37
2018-01-22T05:41:03.716Z,3.33
2018-01-22T05:42:03.686Z,3.20
2018-01-22T05:43:03.714Z,3.22
2018-01-22T05:44:03.647Z,3.35
2018-01-22T05:45:03.620Z,3.32
2018-01-22T05:46:03.597Z,3.37
2018-01-22T05:47:03.577Z,3.37
2018-01-22T05:48:03.549Z,3.35
2018-01-22T05:49:03.537Z,3.35
2018-01-22T05:50:03.508Z,3.33
2018-01-22T05:51:03.479Z,3.45
2018-01-22T05:52:03.463Z,3.29
2018-01-22T05:53:03.533Z,3.35
2018-01-22T05:54:03.409Z,3.32
2018-01-22T05:55:03.386Z,3.37
2018-01-22T05:56:03.370Z,3.36
2018-01-22T05:57:03.350Z,3.33
2018-01-22T05:58:03.320Z,3.27
2018-01-22T05:59:03.297Z,3.36
2018-01-22T06:00:03.273Z,3.35
2018-01-22T06:01:03.249Z,3.35
2018-01-22T06:02:03.232Z,3.37
2018-01-22T06:03:03.208Z,3.32
2018-01-22T06:04:03.179Z,3.32
2018-01-22T06:05:03.159Z,3.46
2018-01-22T06:06:03.136Z,3.48
2018-01-22T06:07:03.118Z,3.44
2018-01-22T06:08:03.101Z,3.48
2018-01-22T06:09:03.070Z,3.30
2018-01-22T06:10:03.055Z,3.44
2018-01-22T06:11:03.021Z,3.48
2018-01-22T06:12:02.995Z,3.33
2018-01-22T06:13:02.974Z,3.44
2018-01-22T06:14:02.959Z,3.48
2018-01-22T06:15:02.928Z,3.48
2018-01-22T06:16:02.905Z,3.46
2018-01-22T06:17:02.883Z,3.49
2018-01-22T06:18:02.860Z,3.51
2018-01-22T06:19:02.840Z,3.49
2018-01-22T06:20:02.815Z,3.62
2018-01-22T06:21:02.790Z,3.55
2018-01-22T06:22:02.775Z,3.60
2018-01-22T06:23:02.749Z,3.56
2018-01-22T06:24:02.725Z,3.54
2018-01-22T06:25:02.699Z,3.56
2018-01-22T06:26:02.674Z,3.62
2018-01-22T06:27:02.660Z,3.62
2018-01-22T06:28:02.636Z,3.59
2018-01-22T06:29:02.609Z,3.60
2018-01-22T06:30:02.591Z,3.59
2018-01-22T06:31:02.570Z,3.56
2018-01-22T06:32:02.539Z,3.48
2018-01-22T06:33:02.530Z,3.59
2018-01-22T06:34:02.501Z,3.59
2018-01-22T06:35:02.483Z,3.55
2018-01-22T06:36:02.452Z,3.51
2018-01-22T06:37:02.430Z,3.59
2018-01-22T06:38:02.407Z,3.62
2018-01-22T06:39:02.382Z,3.59
2018-01-22T06:40:02.423Z,3.59
2018-01-22T06:41:02.341Z,3.49
2018-01-22T06:42:02.322Z,3.44
2018-01-22T06:43:02.293Z,3.62
2018-01-22T06:44:02.285Z,3.56
2018-01-22T06:45:02.251Z,3.62
2018-01-22T06:46:02.227Z,3.60
2018-01-22T06:47:02.201Z,3.60
2018-01-22T06:48:02.191Z,3.59
2018-01-22T06:49:02.160Z,3.66
2018-01-22T06:50:02.130Z,3.56
2018-01-22T06:51:02.108Z,3.59
2018-01-22T06:52:02.089Z,3.63
2018-01-22T06:53:02.072Z,3.62
2018-01-22T06:54:02.039Z,3.73
2018-01-22T06:55:02.015Z,3.72
2018-01-22T06:56:02.002Z,3.67
2018-01-22T06:57:01.968Z,3.64
2018-01-22T06:58:01.957Z,3.64
2018-01-22T06:59:01.930Z,3.73
2018-01-22T07:00:01.901Z,3.82
2018-01-22T07:01:01.880Z,3.82
2018-01-22T07:02:01.861Z,3.90
2018-01-22T07:03:01.838Z,3.90
2018-01-22T07:04:01.812Z,3.87
2018-01-22T07:05:01.791Z,3.90
2018-01-22T07:06:01.770Z,3.92
2018-01-22T07:07:01.751Z,3.94
2018-01-22T07:08:01.721Z,3.91
2018-01-22T07:09:01.705Z,3.92
2018-01-22T07:10:01.681Z,3.94
2018-01-22T07:11:01.653Z,3.90
2018-01-22T07:12:01.632Z,3.88
2018-01-22T07:13:01.608Z,3.90
2018-01-22T07:14:01.593Z,3.88
2018-01-22T07:15:01.567Z,3.94
2018-01-22T07:16:01.542Z,3.85
2018-01-22T07:17:01.519Z,3.88
2018-01-22T07:18:01.499Z,3.90
2018-01-22T07:19:01.475Z,3.90
2018-01-22T07:20:01.459Z,3.90
2018-01-22T07:21:01.430Z,3.92
2018-01-22T07:22:01.405Z,3.98
2018-01-22T07:23:01.383Z,3.99
2018-01-22T07:24:01.372Z,3.96
2018-01-22T07:25:01.343Z,3.91
2018-01-22T07:26:01.317Z,4.02
2018-01-22T07:27:01.299Z,4.08
2018-01-22T07:28:01.280Z,4.12
2018-01-22T07:29:01.250Z,4.09
2018-01-22T07:30:01.232Z,4.23
2018-01-22T07:31:01.210Z,4.18
2018-01-22T07:32:01.190Z,4.21
2018-01-22T07:33:01.171Z,4.23
2018-01-22T07:34:01.143Z,4.35
2018-01-22T07:35:01.120Z,4.24
2018-01-22T07:36:01.098Z,4.31
2018-01-22T07:37:01.081Z,4.31
2018-01-22T07:38:01.050Z,4.34
2018-01-22T07:39:01.030Z,4.27
2018-01-22T07:40:01.009Z,4.12
2018-01-22T07:41:00.986Z,4.21
2018-01-22T07:42:00.968Z,4.09
2018-01-22T07:43:00.938Z,4.12
2018-01-22T07:44:00.919Z,4.10
2018-01-22T07:45:00.898Z,4.09
2018-01-22T07:46:00.874Z,4.02
2018-01-22T07:47:00.849Z,3.98
2018-01-22T07:48:00.828Z,4.10
2018-01-22T07:49:00.810Z,4.06
2018-01-22T07:50:00.839Z,4.03
2018-01-22T07:51:00.769Z,4.12
2018-01-22T07:52:00.739Z,4.16
2018-01-22T07:53:00.719Z,4.20
2018-01-22T07:54:00.752Z,4.24
2018-01-22T07:55:00.678Z,4.28
2018-01-22T07:56:00.652Z,4.34
2018-01-22T07:57:00.633Z,4.31
2018-01-22T07:58:00.611Z,4.20
2018-01-22T07:59:00.589Z,4.21
2018-01-22T08:00:00.618Z,4.26
2018-01-22T08:01:00.549Z,4.30
2018-01-22T08:02:00.521Z,4.34
2018-01-22T08:03:00.500Z,4.30
2018-01-22T08:04:00.525Z,4.36
2018-01-22T08:05:00.451Z,4.30
2018-01-22T08:06:00.483Z,4.35
2018-01-22T08:07:00.411Z,4.48
2018-01-22T08:08:00.391Z,4.54
2018-01-22T08:09:00.369Z,4.46
2018-01-22T08:10:00.344Z,4.46
2018-01-22T08:11:00.331Z,4.43
2018-01-22T08:12:00.320Z,4.46
2018-01-22T08:13:00.282Z,4.54
2018-01-22T08:14:00.254Z,4.60
2018-01-22T08:15:00.242Z,4.61
2018-01-22T08:16:00.311Z,4.61
2018-01-22T08:17:00.202Z,4.67
2018-01-22T08:18:00.169Z,4.74
2018-01-22T08:19:00.159Z,4.75
2018-01-22T08:20:00.127Z,4.69
2018-01-22T08:21:00.111Z,4.74
2018-01-22T08:22:00.184Z,4.74
2018-01-22T08:23:00.061Z,4.75
2018-01-22T08:24:00.090Z,4.77
2018-01-22T08:25:00.025Z,4.75
2018-01-22T08:26:00.000Z,4.72
2018-01-22T08:26:59.973Z,4.78
2018-01-22T08:27:59.955Z,4.82
2018-01-22T08:28:59.933Z,4.78
2018-01-22T08:29:59.908Z,4.69
2018-01-22T08:30:59.898Z,4.82
2018-01-22T08:31:59.865Z,4.79
2018-01-22T08:32:59.852Z,4.83
2018-01-22T08:33:59.820Z,4.78
2018-01-22T08:34:59.802Z,4.89
2018-01-22T08:35:59.781Z,4.77
2018-01-22T08:36:59.765Z,4.86
2018-01-22T08:37:59.737Z,4.89
2018-01-22T08:38:59.709Z,4.97
2018-01-22T08:39:59.689Z,4.97
2018-01-22T08:40:59.670Z,4.97
2018-01-22T08:41:59.655Z,5.00
2018-01-22T08:42:59.629Z,4.86
2018-01-22T08:43:59.603Z,4.98
2018-01-22T08:44:59.582Z,4.96
2018-01-22T08:45:59.559Z,4.96
2018-01-22T08:46:59.539Z,4.96
2018-01-22T08:47:59.517Z,4.94
2018-01-22T08:48:59.496Z,4.94
2018-01-22T08:49:59.474Z,5.00
2018-01-22T08:50:59.450Z,5.03
2018-01-22T08:51:59.437Z,5.12
2018-01-22T08:52:59.407Z,5.12
2018-01-22T08:53:59.392Z,5.12
2018-01-22T08:54:59.368Z,5.06
2018-01-22T08:55:59.344Z,5.12
2018-01-22T08:56:59.319Z,5.15
2018-01-22T08:57:59.297Z,5.12
2018-01-22T08:58:59.280Z,5.22
2018-01-22T08:59:59.258Z,5.27
2018-01-22T09:00:59.232Z,5.32
2018-01-22T09:01:59.214Z,5.21
2018-01-22T09:02:59.190Z,5.16
2018-01-22T09:03:59.168Z,5.11
2018-01-22T09:04:59.152Z,5.24
2018-01-22T09:05:59.137Z,5.25
2018-01-22T09:06:59.102Z,5.15
2018-01-22T09:07:59.087Z,5.22
2018-01-22T09:08:59.063Z,5.21
2018-01-22T09:09:59.040Z,5.21
2018-01-22T09:10:59.018Z,5.11
2018-01-22T09:11:58.995Z,5.14
2018-01-22T09:12:58.974Z,5.24
2018-01-22T09:13:58.958Z,5.24
2018-01-22T09:14:58.933Z,5.29
2018-01-22T09:15:58.910Z,5.36
2018-01-22T09:16:58.890Z,5.34
2018-01-22T09:17:58.870Z,5.33
2018-01-22T09:18:58.861Z,5.39
2018-01-22T09:19:58.823Z,5.41
2018-01-22T09:20:58.807Z,5.48
2018-01-22T09:21:58.781Z,5.41
2018-01-22T09:22:58.759Z,5.51
2018-01-22T09:23:58.736Z,5.54
2018-01-22T09:24:58.720Z,5.51
2018-01-22T09:25:58.692Z,5.55
2018-01-22T09:26:58.672Z,5.57
2018-01-22T09:27:58.657Z,5.59
2018-01-22T09:28:58.632Z,5.62
2018-01-22T09:29:58.619Z,5.59
2018-01-22T09:30:58.589Z,5.52
2018-01-22T09:31:58.567Z,5.62
2018-01-22T09:32:58.548Z,5.72
2018-01-22T09:33:58.541Z,5.58
2018-01-22T09:34:58.499Z,5.70
2018-01-22T09:35:58.476Z,5.69
2018-01-22T09:36:58.460Z,5.79
2018-01-22T09:37:58.436Z,5.76
2018-01-22T09:38:58.419Z,5.79
2018-01-22T09:39:58.393Z,5.85
2018-01-22T09:40:58.374Z,5.76
2018-01-22T09:41:58.350Z,5.79
2018-01-22T09:42:58.330Z,5.76
2018-01-22T09:43:58.306Z,5.91
2018-01-22T09:44:58.289Z,5.93
2018-01-22T09:45:58.269Z,5.95
2018-01-22T09:46:58.244Z,5.97
2018-01-22T09:47:58.223Z,5.95
2018-01-22T09:48:58.200Z,5.98
2018-01-22T09:49:58.183Z,6.00
2018-01-22T09:50:58.174Z,6.06
2018-01-22T09:51:58.138Z,6.13
2018-01-22T09:52:58.121Z,6.18
2018-01-22T09:53:58.092Z,6.18
2018-01-22T09:54:58.079Z,6.15
2018-01-22T09:55:58.052Z,6.15
2018-01-22T09:56:58.032Z,6.21
2018-01-22T09:57:58.011Z,6.21
2018-01-22T09:58:57.988Z,6.21
2018-01-22T09:59:57.977Z,6.24
2018-01-22T10:00:57.950Z,6.25
2018-01-22T10:01:57.936Z,6.32
2018-01-22T10:02:57.909Z,6.28
2018-01-22T10:03:57.879Z,6.31
2018-01-22T10:04:57.859Z,6.37
2018-01-22T10:05:57.839Z,6.31
2018-01-22T10:06:57.819Z,6.43
2018-01-22T10:07:57.800Z,6.43
2018-01-22T10:08:57.775Z,6.52
2018-01-22T10:09:57.755Z,6.57
2018-01-22T10:10:57.735Z,6.50
2018-01-22T10:11:57.720Z,6.64
2018-01-22T10:12:57.701Z,6.57
2018-01-22T10:13:57.673Z,6.61
2018-01-22T10:14:57.650Z,6.56
2018-01-22T10:15:57.631Z,6.60
2018-01-22T10:16:57.610Z,6.55
2018-01-22T10:17:57.601Z,6.61
2018-01-22T10:18:57.565Z,6.57
2018-01-22T10:19:57.559Z,6.67
2018-01-22T10:20:57.541Z,6.60
2018-01-22T10:21:57.511Z,6.61
2018-01-22T10:22:57.495Z,6.78
2018-01-22T10:23:57.463Z,6.71
2018-01-22T10:24:57.452Z,6.70
2018-01-22T10:25:57.424Z,6.74
2018-01-22T10:26:57.402Z,6.82
2018-01-22T10:27:57.396Z,6.65
2018-01-22T10:28:57.360Z,6.70
2018-01-22T10:29:57.344Z,6.82
2018-01-22T10:30:57.318Z,6.78
2018-01-22T10:31:57.310Z,6.82
2018-01-22T10:32:57.278Z,6.89
2018-01-22T10:33:57.251Z,6.88
2018-01-22T10:34:57.235Z,6.91
2018-01-22T10:35:57.233Z,6.99
2018-01-22T10:36:57.200Z,6.92
2018-01-22T10:37:57.170Z,6.92
2018-01-22T10:38:57.155Z,7.03
2018-01-22T10:39:57.139Z,7.06
2018-01-22T10:40:57.111Z,7.00
2018-01-22T10:41:57.091Z,6.96
2018-01-22T10:42:57.070Z,7.01
2018-01-22T10:43:57.055Z,7.01
2018-01-22T10:44:57.031Z,6.97
2018-01-22T10:45:57.010Z,7.07
2018-01-22T10:46:56.988Z,7.03
2018-01-22T10:47:56.970Z,7.00
2018-01-22T10:48:56.951Z,7.01
2018-01-22T10:49:56.930Z,7.19
2018-01-22T10:50:56.913Z,7.11
2018-01-22T10:51:56.885Z,7.13
2018-01-22T10:52:56.871Z,7.15
2018-01-22T10:53:56.846Z,7.16
2018-01-22T10:54:56.827Z,7.22
2018-01-22T10:55:56.810Z,7.24
2018-01-22T10:56:56.783Z,7.22
2018-01-22T10:57:56.762Z,7.24
2018-01-22T10:58:56.747Z,7.22
2018-01-22T10:59:56.722Z,7.26
2018-01-22T11:00:56.703Z,7.34
2018-01-22T11:01:56.682Z,7.36
2018-01-22T11:02:56.658Z,7.25
2018-01-22T11:03:56.639Z,7.34
2018-01-22T11:04:56.623Z,7.37
2018-01-22T11:05:56.600Z,7.34
2018-01-22T11:06:56.587Z,7.28
2018-01-22T11:07:56.560Z,7.29
2018-01-22T11:08:56.541Z,7.31
2018-01-22T11:09:56.516Z,7.33
2018-01-22T11:10:56.543Z,7.29
2018-01-22T11:11:56.490Z,7.29
2018-01-22T11:12:56.461Z,7.31
2018-01-22T11:13:56.437Z,7.33
2018-01-22T11:14:56.418Z,7.33
2018-01-22T11:15:56.401Z,7.42
2018-01-22T11:16:56.379Z,7.43
2018-01-22T11:17:56.370Z,7.36
2018-01-22T11:18:56.334Z,7.33
2018-01-22T11:19:56.321Z,7.29
2018-01-22T11:20:56.294Z,7.31
2018-01-22T11:21:56.272Z,7.34
2018-01-22T11:22:56.260Z,7.40
2018-01-22T11:23:56.232Z,7.37
2018-01-22T11:24:56.212Z,7.37
2018-01-22T11:25:56.199Z,7.40
2018-01-22T11:26:56.180Z,7.50
2018-01-22T11:27:56.151Z,7.42
2018-01-22T11:28:56.133Z,7.50
2018-01-22T11:29:56.110Z,7.49
2018-01-22T11:30:56.089Z,7.43
2018-01-22T11:31:56.069Z,7.44
2018-01-22T11:32:56.049Z,7.40
2018-01-22T11:33:56.034Z,7.47
2018-01-22T11:34:56.012Z,7.39
2018-01-22T11:35:55.989Z,7.46
2018-01-22T11:36:55.974Z,7.46
2018-01-22T11:37:55.949Z,7.43
2018-01-22T11:38:55.929Z,7.42
2018-01-22T11:39:55.910Z,7.42
2018-01-22T11:40:55.889Z,7.42
2018-01-22T11:41:55.866Z,7.42
2018-01-22T11:42:55.845Z,7.47
2018-01-22T11:43:55.832Z,7.44
2018-01-22T11:44:55.814Z,7.44
2018-01-22T11:45:55.790Z,7.44
2018-01-22T11:46:55.767Z,7.47
2018-01-22T11:47:55.748Z,7.46
2018-01-22T11:48:55.756Z,7.50
2018-01-22T11:49:55.710Z,7.47
2018-01-22T11:50:55.690Z,7.43
2018-01-22T11:51:55.666Z,7.46
2018-01-22T11:52:55.660Z,7.50
2018-01-22T11:53:55.627Z,7.52
2018-01-22T11:54:55.655Z,7.55
2018-01-22T11:55:55.622Z,7.58
2018-01-22T11:56:55.566Z,7.57
2018-01-22T11:57:55.545Z,7.52
2018-01-22T11:58:55.525Z,7.58
2018-01-22T11:59:55.518Z,7.55
2018-01-22T12:00:55.490Z,7.60
2018-01-22T12:01:55.460Z,7.58
2018-01-22T12:02:55.449Z,7.64
2018-01-22T12:03:55.428Z,7.61
2018-01-22T12:04:55.460Z,7.73
2018-01-22T12:05:55.382Z,7.66
2018-01-22T12:06:55.418Z,7.78
2018-01-22T12:07:55.344Z,7.84
2018-01-22T12:08:55.343Z,7.74
2018-01-22T12:09:55.302Z,7.80
2018-01-22T12:10:55.331Z,7.77
2018-01-22T12:11:55.271Z,7.77
2018-01-22T12:12:55.294Z,7.86
2018-01-22T12:13:55.231Z,7.88
2018-01-22T12:14:55.206Z,7.81
2018-01-22T12:15:55.188Z,7.86
2018-01-22T12:16:55.214Z,7.84
2018-01-22T12:17:55.150Z,7.84
2018-01-22T12:18:55.185Z,7.94
2018-01-22T12:19:55.115Z,7.84
2018-01-22T12:20:55.091Z,7.94
2018-01-22T12:21:55.062Z,7.95
2018-01-22T12:22:55.049Z,7.94
2018-01-22T12:23:55.031Z,7.96
2018-01-22T12:24:55.016Z,7.92
2018-01-22T12:25:54.991Z,7.96
2018-01-22T12:26:54.963Z,7.95
2018-01-22T12:27:54.960Z,7.96
2018-01-22T12:28:54.928Z,8.05
2018-01-22T12:29:54.910Z,8.09
2018-01-22T12:30:54.889Z,8.20
2018-01-22T12:31:54.871Z,8.35
2018-01-22T12:32:54.849Z,8.57
2018-01-22T12:33:54.840Z,8.56
2018-01-22T12:34:54.805Z,8.67
2018-01-22T12:35:54.793Z,8.78
2018-01-22T12:36:54.770Z,8.77
2018-01-22T12:37:54.748Z,8.90
2018-01-22T12:38:54.736Z,9.12
2018-01-22T12:39:54.710Z,9.24
2018-01-22T12:40:54.691Z,9.30
2018-01-22T12:41:54.674Z,9.24
2018-01-22T12:42:54.662Z,9.24
2018-01-22T12:43:54.634Z,9.14
2018-01-22T12:44:54.615Z,8.99
2018-01-22T12:45:54.593Z,8.95
2018-01-22T12:46:54.583Z,9.04
2018-01-22T12:47:54.559Z,9.06
2018-01-22T12:48:54.540Z,9.03
2018-01-22T12:49:54.515Z,8.98
2018-01-22T12:50:54.500Z,8.93
2018-01-22T12:51:54.477Z,8.90
2018-01-22T12:52:54.460Z,8.89
2018-01-22T12:53:54.436Z,8.89
2018-01-22T12:54:54.420Z,8.89
2018-01-22T12:55:54.400Z,8.88
2018-01-22T12:56:54.386Z,8.78
2018-01-22T12:57:54.365Z,8.80
2018-01-22T12:58:54.348Z,8.80
2018-01-22T12:59:54.332Z,8.74
2018-01-22T13:00:54.306Z,8.68
2018-01-22T13:01:54.287Z,8.67
2018-01-22T13:02:54.270Z,8.67
2018-01-22T13:03:54.248Z,8.62
2018-01-22T13:04:54.231Z,8.62
2018-01-22T13:05:54.209Z,8.55
2018-01-22T13:06:54.192Z,8.65
2018-01-22T13:07:54.176Z,8.53
2018-01-22T13:08:54.157Z,8.57
2018-01-22T13:09:54.141Z,8.52
2018-01-22T13:10:54.115Z,8.52
2018-01-22T13:11:54.099Z,8.57
2018-01-22T13:12:54.081Z,8.63
2018-01-22T13:13:54.060Z,8.55
2018-01-22T13:14:54.095Z,8.49
2018-01-22T13:15:54.023Z,8.50
2018-01-22T13:16:54.110Z,8.49
2018-01-22T13:17:53.981Z,8.52